createdAt,value
2019-02-05T00:03:16.759Z,15.30
2019-02-05T00:08:21.712Z,9.90
2019-02-05T00:13:26.879Z,12.17
2019-02-05T00:18:32.607Z,15.37
2019-02-05T00:23:37.306Z,13.13
2019-02-05T00:28:42.050Z,11.90
2019-02-05T00:33:46.754Z,12.73
2019-02-05T00:38:51.454Z,10.13
2019-02-05T00:43:56.154Z,12.60
2019-02-05T00:49:00.904Z,11.47
2019-02-05T00:54:06.207Z,10.97
2019-02-05T00:59:11.252Z,8.85
2019-02-05T01:04:16.099Z,11.13
2019-02-05T01:09:22.494Z,10.43
2019-02-05T01:14:27.262Z,12.07
2019-02-05T01:19:32.021Z,9.57
2019-02-05T01:24:36.730Z,11.50
2019-02-05T01:29:41.423Z,8.93
2019-02-05T01:34:46.223Z,9.83
2019-02-05T01:39:50.929Z,11.70
2019-02-05T01:44:55.645Z,9.00
2019-02-05T01:50:00.457Z,11.07
2019-02-05T01:55:05.751Z,9.50
2019-02-05T02:00:14.068Z,9.53
2019-02-05T02:05:19.014Z,8.63
2019-02-05T02:10:25.538Z,9.70
2019-02-05T02:15:31.387Z,9.50
2019-02-05T02:20:36.241Z,11.33
2019-02-05T02:25:41.119Z,9.33
2019-02-05T02:30:46.078Z,9.73
2019-02-05T02:35:51.225Z,11.03
2019-02-05T02:40:57.262Z,8.87
2019-02-05T02:46:01.997Z,14.13
2019-02-05T02:51:07.011Z,10.03
2019-02-05T02:56:11.838Z,10.37
2019-02-05T03:01:16.606Z,10.20
2019-02-05T03:06:21.378Z,8.78
2019-02-05T03:11:26.252Z,7.80
2019-02-05T03:16:31.007Z,9.87
2019-02-05T03:21:37.183Z,9.30
2019-02-05T03:26:42.061Z,10.47
2019-02-05T03:31:46.861Z,10.57
2019-02-05T03:36:51.640Z,11.80
2019-02-05T03:41:56.338Z,8.10
2019-02-05T03:47:01.221Z,8.50
2019-02-05T03:52:20.527Z,8.87
2019-02-05T03:57:45.786Z,9.20
2019-02-05T04:03:08.976Z,9.77
2019-02-05T04:08:28.486Z,8.40
2019-02-05T04:14:32.821Z,10.20
2019-02-05T04:20:07.674Z,8.27
2019-02-05T04:25:36.027Z,8.50
2019-02-05T04:31:13.300Z,7.93
2019-02-05T04:36:51.660Z,10.47
2019-02-05T04:42:10.715Z,7.00
2019-02-05T04:47:46.346Z,12.20
2019-02-05T04:53:36.010Z,7.73
2019-02-05T04:59:24.780Z,9.70
2019-02-05T05:05:05.413Z,10.37
2019-02-05T05:10:11.161Z,10.23
2019-02-05T05:15:15.987Z,12.83
2019-02-05T05:20:20.705Z,12.33
2019-02-05T05:25:25.666Z,10.53
2019-02-05T05:30:30.898Z,11.40
2019-02-05T05:35:43.622Z,9.80
2019-02-05T05:40:42.312Z,10.97
2019-02-05T05:45:47.183Z,13.83
2019-02-05T05:50:52.195Z,10.80
2019-02-05T05:55:56.965Z,9.07
2019-02-05T06:01:01.676Z,9.93
2019-02-05T06:06:06.467Z,14.40
2019-02-05T06:11:11.333Z,13.20
2019-02-05T06:16:16.208Z,12.30
2019-02-05T06:21:21.033Z,9.20
2019-02-05T06:26:26.117Z,10.57
2019-02-05T06:32:07.753Z,9.97
2019-02-05T06:37:13.585Z,10.93
2019-02-05T06:42:18.342Z,10.17
2019-02-05T06:47:23.529Z,8.73
2019-02-05T06:52:28.316Z,12.17
2019-02-05T06:57:33.162Z,9.10
2019-02-05T07:02:37.908Z,9.07
2019-02-05T07:07:42.793Z,10.83
2019-02-05T07:12:48.112Z,9.27
2019-02-05T07:17:53.746Z,10.70
2019-02-05T07:22:58.837Z,9.07
2019-02-05T07:28:05.294Z,10.53
2019-02-05T07:33:10.043Z,9.40
2019-02-05T07:38:15.242Z,9.30
2019-02-05T07:43:20.176Z,11.50
2019-02-05T07:48:24.953Z,12.73
2019-02-05T07:53:29.709Z,9.73
2019-02-05T07:58:34.573Z,10.13
2019-02-05T08:03:39.595Z,11.20
2019-02-05T08:08:44.817Z,12.17
2019-02-05T08:13:49.619Z,11.07
2019-02-05T08:18:54.716Z,11.90
2019-02-05T08:23:59.518Z,13.80
2019-02-05T08:29:05.453Z,11.37
2019-02-05T08:34:10.211Z,11.93
2019-02-05T08:39:17.816Z,11.23
2019-02-05T08:44:21.289Z,12.63
2019-02-05T08:49:26.114Z,11.10
2019-02-05T08:54:30.868Z,14.63
2019-02-05T08:59:35.967Z,10.87
2019-02-05T09:04:41.060Z,12.63
2019-02-05T09:10:05.754Z,14.57
2019-02-05T09:15:43.790Z,14.53
2019-02-05T09:20:19.543Z,12.77
2019-02-05T09:25:25.398Z,13.23
2019-02-05T09:30:31.916Z,13.77
2019-02-05T09:35:36.731Z,12.67
2019-02-05T09:40:41.676Z,13.37
2019-02-05T09:45:46.658Z,13.50
2019-02-05T09:50:51.399Z,11.60
2019-02-05T09:55:56.490Z,12.93
2019-02-05T10:01:01.329Z,15.73
2019-02-05T10:06:06.072Z,16.30
2019-02-05T10:11:11.859Z,15.97
2019-02-05T10:16:16.644Z,16.87
2019-02-05T10:21:21.541Z,16.30
2019-02-05T10:26:27.471Z,14.57
2019-02-05T10:31:32.582Z,17.60
2019-02-05T10:36:37.797Z,16.20
2019-02-05T10:41:43.538Z,17.57
2019-02-05T10:46:48.694Z,18.00
2019-02-05T10:51:53.460Z,18.70
2019-02-05T10:56:58.237Z,15.40
2019-02-05T11:02:03.140Z,18.13
2019-02-05T11:07:07.865Z,18.43
2019-02-05T11:12:12.921Z,19.43
2019-02-05T11:17:20.065Z,20.08
2019-02-05T11:22:24.905Z,18.03
2019-02-05T11:27:29.701Z,17.60
2019-02-05T11:32:34.829Z,20.70
2019-02-05T11:37:39.685Z,17.20
2019-02-05T11:42:44.865Z,19.63
2019-02-05T11:47:50.575Z,20.90
2019-02-05T11:52:55.521Z,20.37
2019-02-05T11:58:00.358Z,17.97
2019-02-05T12:03:05.849Z,22.27
2019-02-05T12:08:11.164Z,17.75
2019-02-05T12:13:15.964Z,20.43
2019-02-05T12:18:20.942Z,17.50
2019-02-05T12:23:26.797Z,21.57
2019-02-05T12:28:31.663Z,18.33
2019-02-05T12:33:36.420Z,17.87
2019-02-05T12:38:41.240Z,17.97
2019-02-05T12:43:46.191Z,21.80
2019-02-05T12:48:50.994Z,17.33
2019-02-05T12:53:56.295Z,17.27
2019-02-05T12:59:01.083Z,17.77
2019-02-05T13:04:07.510Z,17.70
2019-02-05T13:09:12.210Z,17.93
2019-02-05T13:25:51.969Z,16.57
2019-02-05T13:31:07.375Z,21.03
2019-02-05T13:36:05.539Z,18.13
2019-02-05T13:41:10.320Z,18.02
2019-02-05T13:46:15.047Z,19.37
2019-02-05T13:51:20.221Z,17.23
2019-02-05T13:56:25.098Z,21.60
2019-02-05T14:01:30.229Z,21.13
2019-02-05T14:06:35.044Z,19.40
2019-02-05T14:11:39.822Z,21.77
2019-02-05T14:16:44.807Z,21.63
2019-02-05T14:21:49.882Z,21.77
2019-02-05T14:26:54.651Z,19.77
2019-02-05T14:31:59.558Z,20.13
2019-02-05T14:37:04.631Z,17.57
2019-02-05T14:42:09.413Z,19.43
2019-02-05T14:47:15.045Z,20.70
2019-02-05T14:52:19.829Z,17.90
2019-02-05T14:57:24.851Z,19.55
2019-02-05T15:02:29.856Z,19.60
2019-02-05T15:07:34.731Z,19.83
2019-02-05T15:12:39.447Z,19.27
2019-02-05T15:17:44.277Z,19.50
2019-02-05T15:22:48.976Z,20.43
2019-02-05T15:27:53.943Z,21.80
2019-02-05T15:33:13.428Z,18.57
2019-02-05T15:38:18.217Z,17.57
2019-02-05T15:43:23.279Z,19.30
2019-02-05T15:48:28.386Z,22.20
2019-02-05T15:53:33.163Z,21.07
2019-02-05T15:58:37.943Z,20.43
2019-02-05T16:03:42.725Z,18.87
2019-02-05T16:08:47.544Z,18.20
2019-02-05T16:13:52.339Z,20.37
2019-02-05T16:18:57.140Z,18.57
2019-02-05T16:24:01.949Z,19.47
2019-02-05T16:29:06.769Z,21.17
2019-02-05T16:34:11.481Z,23.47
2019-02-05T16:39:16.355Z,25.37
2019-02-05T16:44:21.475Z,22.17
2019-02-05T16:49:26.260Z,23.37
2019-02-05T16:54:31.054Z,22.93
2019-02-05T16:59:35.794Z,23.07
2019-02-05T17:04:40.507Z,22.87
2019-02-05T17:09:45.268Z,22.10
2019-02-05T17:14:50.013Z,24.77
2019-02-05T17:19:55.484Z,20.53
2019-02-05T17:25:00.375Z,21.77
2019-02-05T17:30:09.222Z,21.10
2019-02-05T17:35:14.108Z,20.17
2019-02-05T17:40:20.199Z,21.20
2019-02-05T17:45:27.197Z,23.23
2019-02-05T17:50:32.193Z,22.20
2019-02-05T17:55:37.409Z,22.37
2019-02-05T18:00:49.123Z,18.80
2019-02-05T18:05:54.571Z,26.17
2019-02-05T18:10:59.430Z,20.53
2019-02-05T18:16:22.744Z,24.23
2019-02-05T18:21:28.028Z,21.70
2019-02-05T18:26:33.001Z,19.47
2019-02-05T18:31:37.662Z,19.20
2019-02-05T18:36:42.484Z,23.83
2019-02-05T18:41:47.256Z,21.00
2019-02-05T18:46:52.949Z,20.93
2019-02-05T18:51:57.729Z,21.50
2019-02-05T18:57:02.456Z,23.87
2019-02-05T19:02:07.433Z,25.23
2019-02-05T19:07:12.188Z,22.77
2019-02-05T19:12:16.902Z,24.87
2019-02-05T19:17:21.791Z,25.17
2019-02-05T19:22:26.568Z,22.20
2019-02-05T19:27:31.632Z,24.40
2019-02-05T19:32:36.594Z,26.40
2019-02-05T19:37:41.474Z,24.43
2019-02-05T19:42:46.246Z,30.00
2019-02-05T19:47:51.009Z,28.07
2019-02-05T19:52:55.850Z,26.70
2019-02-05T19:58:00.822Z,25.08
2019-02-05T20:03:06.641Z,28.70
2019-02-05T20:08:11.792Z,24.47
2019-02-05T20:13:16.652Z,27.77
2019-02-05T20:18:22.380Z,27.53
2019-02-05T20:23:27.151Z,24.03
2019-02-05T20:28:40.961Z,25.97
2019-02-05T20:33:49.951Z,29.50
2019-02-05T20:38:53.115Z,28.00
2019-02-05T20:43:58.371Z,28.13
2019-02-05T20:49:03.187Z,26.17
2019-02-05T20:54:08.106Z,23.63
2019-02-05T20:59:13.209Z,29.97
2019-02-05T21:04:17.978Z,29.80
2019-02-05T21:09:23.053Z,24.17
2019-02-05T21:14:27.781Z,28.73
2019-02-05T21:19:32.493Z,28.23
2019-02-05T21:24:37.303Z,25.83
2019-02-05T21:29:42.040Z,25.60
2019-02-05T21:34:47.015Z,28.53
2019-02-05T21:40:02.136Z,30.07
2019-02-05T21:44:59.664Z,26.87
2019-02-05T21:50:07.489Z,28.17
2019-02-05T21:55:13.304Z,30.07
2019-02-05T22:00:23.752Z,27.62
2019-02-05T22:05:28.835Z,26.67
2019-02-05T22:10:33.663Z,26.27
2019-02-05T22:15:38.544Z,28.20
2019-02-05T22:20:43.439Z,30.40
2019-02-05T22:25:48.524Z,29.43
2019-02-05T22:30:53.548Z,28.13
2019-02-05T22:35:58.363Z,27.20
2019-02-05T22:41:03.154Z,24.60
2019-02-05T22:46:07.912Z,24.13
2019-02-05T22:51:12.942Z,26.60
2019-02-05T22:56:17.806Z,27.97
2019-02-05T23:01:46.283Z,27.60
2019-02-05T23:06:59.902Z,29.37
2019-02-05T23:12:41.076Z,26.93
2019-02-05T23:17:45.916Z,27.23
2019-02-05T23:22:50.866Z,25.20
2019-02-05T23:27:55.578Z,24.50
2019-02-05T23:33:00.532Z,23.87
2019-02-05T23:43:40.131Z,22.60
2019-02-05T23:48:44.969Z,25.40
2019-02-05T23:53:49.679Z,23.30
2019-02-05T23:58:54.331Z,23.13
